Aérodrome :
LOGIN :

S'inscrire | Disclaimer

   EN    FR    IT 

 










Légende :    VFR   VFR Marginal   IFR   IFR Intensif   IFR Très Intensif
Visi : 
Plafond : 
>= 8 km
>= 3000ft
5 à 8 km
1000 à 3000 ft
1500m à 5 km
500 à 1000 ft
800 à 1500m
200 à 500 ft
< 800m
< 200 ft
Symboles :   Orages  Brouillard  Fortes neiges  Fortes précipitations  Vent > 20 kt
SIGMETs :   Divers  Orages  Givrage  Turbulence  Onde Orograph.  Cendres Volcan.







- Altitude de l'aérodrome : 1249 ft


ETSN - Neuburg AB

DERNIER METAR :
  • 231120Z 04003KT 9999 SCT012 BKN016 09/06 Q1015 WHT WHT BECMG BLU+

METARs EXPIRÉS :
  • 231020Z 03004KT 9999 BKN012 09/06 Q1015 GRN GRN TEMPO WHT
  • 230920Z 11004KT 9999 BKN009 08/06 Q1015 GRN GRN TEMPO WHT
  • 230907Z 11004KT 9000 BKN007 08/06 Q1015 GRN GRN TEMPO WHT

TAF TAF ETSN
Valide du 23 à 12h jusqu'au 23 à 21h UTC


231125Z 2312/2321 04005KT 9000 NSW SCT012 BKN020
BECMG 2312/2314 07005KT 9999 NSW SCT020 SCT220
BECMG 2319/2321 VRB03KT 5000 BR FEW003 BY ETGL
Pas de NOTAMs connus pour ce terrain.



MET'MAP, la Météo Aéronautique d'un coup d'oeil ! - Copyright ORBIFLY Décembre 2007 - Disclaimer

ORBIFLY MET'MAP TEAM :

Programmation & Développement : Alexandra Zaïnal
Conception & Développement : Baudouin d'Aumeries
Co-Programmation & Développement : Marc-Olivier Méhu
Soutien technique & logistique : Manuel Goepfert

Contact : metmap@orbifly.com




SOURCES & CREDITS :

   NOAA